Briefing drone pour Saint-peray

Rechercher une autre localisation

Conditions de vol :


Nous sommes le : Vendredi 03 décembre 2021
Il est 22:12 UTC (23:12 LT)

Lever de soleil : 06:34 UTC (07:34 LT)
Coucher de soleil : 16:26 UTC (17:26 LT)

Météo

L'essentiel des conditions de vol

VIGILANCE MÉTÉO FRANCE - Ardèche (07)
Pas de vigilances particulieres
METAR de LFLU
LFLU 031800Z AUTO 10001KT 9999 FEW044 BKN078 BKN096 00/M02 Q1017

Date d'émission: 03/12/2021
Heure d'émission: 18:00 UTC
Vent: 100° pour 1 KT (2 km/h)
Visibilité horizontale: > 10 km
Plafond :
- Peu de nuages à 4400ft (1341m)
- Nuages morcelés à 7800ft (2377m)
- Nuages morcelés à 9600ft (2926m)
Température: 0 °C
Point de rosée: -2 °C
Humidité: 86%
Pression (QNH): 1017 hPa
Prévision 24h pour Valence (3 km)
Vent : 314° pour 1 KT (4 km/h)
Temperature Maxi: 5 °C
Temperature Min: 5 °C
Humidité : 92%
Condition : Légère pluie



Warning: count(): Parameter must be an array or an object that implements Countable in /homepages/6/d509196549/htdocs/droneoxygene/briefing.php on line 743
WEBCAM POUR SAINT-PERAY

Réglementation

Voler en sécurité

CARTES AERONAUTIQUE 1/500.000
CARTES VAC (LFLU)
SUP AIP




Chargement des AIP...
NOTAM (SAINT-PERAY + Terrain à proximité / FIR )




Chargement des NOTAMS...
CONTACT PREFECTURE 07


Avertissement : Les données mises à disposition sont indicatives. Oxygène Drone ne pourra être tenu responsable de dégâts causés aux biens et aux personnes.